createdAt,value
2018-04-06T00:01:25.124Z,3.45
2018-04-06T00:03:53.364Z,3.20
2018-04-06T00:06:21.060Z,2.20
2018-04-06T00:08:48.522Z,1.70
2018-04-06T00:11:16.749Z,2.12
2018-04-06T00:13:44.250Z,2.25
2018-04-06T00:16:11.710Z,3.28
2018-04-06T00:18:39.944Z,3.80
2018-04-06T00:21:07.407Z,2.65
2018-04-06T00:23:34.895Z,2.78
2018-04-06T00:26:03.157Z,1.90
2018-04-06T00:28:30.631Z,3.65
2018-04-06T00:30:58.857Z,2.22
2018-04-06T00:33:26.326Z,2.15
2018-04-06T00:35:53.778Z,2.20
2018-04-06T00:38:21.256Z,2.92
2018-04-06T00:40:48.711Z,2.58
2018-04-06T00:43:16.280Z,2.72
2018-04-06T00:45:43.841Z,2.37
2018-04-06T00:48:11.385Z,2.40
2018-04-06T00:50:38.840Z,2.50
2018-04-06T00:56:08.313Z,2.03
2018-04-06T00:58:35.830Z,2.42
2018-04-06T01:01:03.311Z,2.30
2018-04-06T01:03:31.540Z,3.70
2018-04-06T01:05:59.045Z,2.70
2018-04-06T01:08:27.349Z,1.90
2018-04-06T01:10:54.792Z,1.92
2018-04-06T01:13:22.258Z,2.22
2018-04-06T01:15:49.730Z,2.65
2018-04-06T01:18:17.219Z,2.80
2018-04-06T01:20:44.771Z,1.70
2018-04-06T01:23:12.236Z,3.08
2018-04-06T01:25:39.693Z,3.85
2018-04-06T01:28:07.159Z,2.40
2018-04-06T01:30:34.713Z,2.67
2018-04-06T01:33:02.176Z,3.35
2018-04-06T01:35:29.732Z,2.80
2018-04-06T01:37:57.192Z,2.60
2018-04-06T01:40:24.660Z,2.50
2018-04-06T01:42:52.881Z,3.20
2018-04-06T01:45:20.364Z,2.37
2018-04-06T01:47:47.816Z,2.60
2018-04-06T01:50:15.274Z,2.00
2018-04-06T01:52:42.838Z,1.85
2018-04-06T01:55:10.305Z,3.50
2018-04-06T01:57:37.753Z,2.20
2018-04-06T02:00:05.216Z,3.22
2018-04-06T02:02:32.704Z,1.70
2018-04-06T02:05:00.161Z,2.25
2018-04-06T02:07:27.611Z,3.10
2018-04-06T02:09:55.840Z,2.75
2018-04-06T02:12:23.292Z,2.15
2018-04-06T02:14:50.761Z,2.45
2018-04-06T02:17:18.320Z,2.58
2018-04-06T02:19:45.873Z,1.90
2018-04-06T02:22:13.332Z,1.90
2018-04-06T02:24:40.945Z,3.12
2018-04-06T02:27:08.319Z,2.50
2018-04-06T02:29:35.781Z,2.28
2018-04-06T02:32:03.268Z,2.33
2018-04-06T02:34:30.837Z,1.73
2018-04-06T02:36:58.308Z,2.00
2018-04-06T02:39:26.560Z,2.10
2018-04-06T02:41:54.011Z,3.12
2018-04-06T02:44:21.497Z,2.58
2018-04-06T02:46:49.743Z,2.50
2018-04-06T02:49:17.226Z,2.78
2018-04-06T02:51:45.483Z,2.65
2018-04-06T02:54:12.936Z,2.10
2018-04-06T02:56:40.405Z,2.40
2018-04-06T02:59:07.880Z,3.08
2018-04-06T03:01:36.116Z,2.55
2018-04-06T03:04:03.576Z,2.78
2018-04-06T03:06:31.146Z,2.28
2018-04-06T03:08:58.599Z,2.40
2018-04-06T03:11:26.064Z,2.60
2018-04-06T03:13:53.519Z,2.47
2018-04-06T03:16:21.064Z,2.35
2018-04-06T03:18:48.521Z,2.58
2018-04-06T03:21:15.980Z,2.50
2018-04-06T03:23:43.435Z,1.90
2018-04-06T03:26:10.887Z,2.95
2018-04-06T03:28:38.339Z,3.10
2018-04-06T03:31:05.818Z,2.97
2018-04-06T03:33:33.363Z,3.90
2018-04-06T03:36:00.837Z,3.10
2018-04-06T03:38:28.440Z,3.90
2018-04-06T03:40:56.410Z,2.50
2018-04-06T03:43:23.871Z,3.55
2018-04-06T03:45:51.347Z,3.40
2018-04-06T03:48:18.810Z,1.87
2018-04-06T03:50:46.268Z,2.10
2018-04-06T03:53:13.769Z,4.25
2018-04-06T03:55:41.283Z,1.95
2018-04-06T03:58:09.075Z,2.80
2018-04-06T04:00:37.329Z,4.15
2018-04-06T04:03:04.796Z,3.50
2018-04-06T04:05:32.267Z,3.90
2018-04-06T04:08:00.500Z,2.55
2018-04-06T04:10:27.977Z,2.55
2018-04-06T04:12:55.536Z,2.35
2018-04-06T04:15:23.095Z,3.35
2018-04-06T04:17:50.650Z,3.10
2018-04-06T04:20:18.113Z,2.92
2018-04-06T04:22:45.577Z,4.57
2018-04-06T04:25:13.046Z,2.50
2018-04-06T04:27:41.273Z,2.95
2018-04-06T04:30:08.721Z,2.28
2018-04-06T04:32:36.192Z,2.83
2018-04-06T04:35:03.668Z,3.00
2018-04-06T04:37:31.129Z,2.20
2018-04-06T04:39:58.606Z,3.70
2018-04-06T04:42:26.065Z,3.05
2018-04-06T04:44:54.295Z,2.78
2018-04-06T04:47:21.757Z,2.70
2018-04-06T04:49:49.215Z,3.10
2018-04-06T04:52:16.688Z,3.17
2018-04-06T04:54:44.141Z,2.97
2018-04-06T04:57:11.705Z,2.78
2018-04-06T04:59:39.934Z,2.37
2018-04-06T05:02:07.490Z,3.30
2018-04-06T05:04:35.001Z,3.05
2018-04-06T05:07:02.512Z,3.05
2018-04-06T05:09:30.100Z,3.47
2018-04-06T05:11:57.573Z,3.40
2018-04-06T05:14:25.026Z,3.42
2018-04-06T05:16:52.572Z,3.17
2018-04-06T05:19:20.359Z,2.80
2018-04-06T05:21:47.965Z,3.25
2018-04-06T05:24:15.434Z,2.30
2018-04-06T05:26:42.888Z,3.10
2018-04-06T05:29:10.493Z,3.95
2018-04-06T05:31:38.168Z,2.70
2018-04-06T05:34:06.641Z,2.35
2018-04-06T05:36:34.959Z,2.60
2018-04-06T05:39:02.423Z,3.35
2018-04-06T05:41:29.906Z,4.18
2018-04-06T05:43:57.365Z,2.75
2018-04-06T05:46:24.843Z,2.85
2018-04-06T05:48:53.128Z,3.10
2018-04-06T05:51:21.450Z,3.05
2018-04-06T05:53:49.073Z,2.75
2018-04-06T05:56:17.296Z,2.37
2018-04-06T05:58:44.976Z,2.90
2018-04-06T06:01:12.433Z,2.75
2018-04-06T06:03:39.903Z,3.95
2018-04-06T06:06:08.344Z,3.50
2018-04-06T06:08:35.808Z,2.75
2018-04-06T06:11:03.352Z,2.62
2018-04-06T06:13:30.804Z,4.45
2018-04-06T06:15:58.329Z,4.10
2018-04-06T06:18:26.532Z,2.92
2018-04-06T06:20:54.047Z,3.20
2018-04-06T06:23:22.434Z,2.78
2018-04-06T06:25:50.781Z,2.80
2018-04-06T06:28:18.268Z,2.90
2018-04-06T06:30:46.574Z,3.25
2018-04-06T06:33:14.043Z,2.30
2018-04-06T06:35:41.654Z,3.30
2018-04-06T06:38:09.896Z,3.00
2018-04-06T06:40:37.366Z,3.35
2018-04-06T06:43:04.873Z,4.00
2018-04-06T06:45:33.093Z,3.20
2018-04-06T06:48:00.658Z,2.72
2018-04-06T06:50:28.226Z,3.25
2018-04-06T06:52:55.704Z,3.20
2018-04-06T06:55:23.928Z,3.15
2018-04-06T06:57:51.396Z,3.70
2018-04-06T07:00:18.851Z,4.00
2018-04-06T07:02:46.465Z,3.25
2018-04-06T07:05:14.157Z,3.22
2018-04-06T07:07:41.750Z,2.30
2018-04-06T07:10:09.307Z,3.28
2018-04-06T07:12:36.952Z,3.67
2018-04-06T07:15:04.595Z,2.92
2018-04-06T07:17:32.136Z,3.15
2018-04-06T07:19:59.633Z,2.97
2018-04-06T07:22:27.104Z,2.30
2018-04-06T07:24:54.658Z,2.83
2018-04-06T07:27:22.168Z,3.05
2018-04-06T07:29:49.647Z,3.22
2018-04-06T07:32:17.096Z,2.85
2018-04-06T07:34:44.575Z,3.33
2018-04-06T07:37:12.028Z,2.65
2018-04-06T07:39:39.487Z,2.87
2018-04-06T07:42:06.959Z,2.50
2018-04-06T07:44:34.422Z,2.75
2018-04-06T07:47:01.895Z,1.92
2018-04-06T07:49:30.108Z,2.60
2018-04-06T07:51:57.571Z,1.80
2018-04-06T07:54:25.452Z,2.67
2018-04-06T07:56:53.411Z,2.75
2018-04-06T07:59:21.558Z,1.85
2018-04-06T08:01:50.067Z,2.70
2018-04-06T08:04:17.597Z,2.10
2018-04-06T08:06:45.058Z,2.80
2018-04-06T08:09:12.645Z,2.50
2018-04-06T08:11:40.142Z,2.65
2018-04-06T08:14:08.391Z,2.05
2018-04-06T08:16:35.906Z,2.35
2018-04-06T08:19:03.362Z,2.20
2018-04-06T08:21:30.820Z,2.40
2018-04-06T08:23:58.317Z,2.10
2018-04-06T08:26:25.789Z,2.12
2018-04-06T08:28:53.243Z,2.00
2018-04-06T08:31:20.701Z,2.30
2018-04-06T08:33:48.961Z,2.10
2018-04-06T08:36:16.416Z,2.10
2018-04-06T08:38:43.872Z,1.30
2018-04-06T08:41:11.495Z,1.77
2018-04-06T08:43:38.937Z,1.83
2018-04-06T08:46:06.409Z,1.87
2018-04-06T08:48:33.876Z,2.00
2018-04-06T08:51:01.342Z,1.80
2018-04-06T08:53:28.825Z,2.55
2018-04-06T08:55:56.391Z,1.55
2018-04-06T08:58:23.858Z,2.20
2018-04-06T09:00:52.107Z,1.80
2018-04-06T09:03:19.672Z,1.37
2018-04-06T09:05:47.286Z,1.70
2018-04-06T09:08:14.767Z,2.42
2018-04-06T09:10:42.301Z,1.10
2018-04-06T09:13:09.765Z,1.60
2018-04-06T09:15:37.229Z,1.85
2018-04-06T09:18:04.700Z,1.73
2018-04-06T09:20:32.172Z,1.35
2018-04-06T09:22:59.641Z,1.77
2018-04-06T09:25:28.252Z,1.70
2018-04-06T09:27:55.771Z,1.47
2018-04-06T09:30:23.320Z,1.37
2018-04-06T09:32:50.879Z,2.10
2018-04-06T09:35:18.335Z,1.90
2018-04-06T09:37:45.801Z,1.43
2018-04-06T09:40:13.293Z,1.67
2018-04-06T09:42:40.876Z,1.43
2018-04-06T09:45:08.365Z,1.43
2018-04-06T09:47:35.963Z,1.20
2018-04-06T09:50:03.498Z,1.40
2018-04-06T09:52:31.123Z,1.10
2018-04-06T09:54:58.670Z,1.20
2018-04-06T09:57:26.170Z,1.13
2018-04-06T09:59:53.584Z,1.17
2018-04-06T10:02:21.062Z,1.73
2018-04-06T10:04:48.527Z,1.00
2018-04-06T10:07:16.105Z,1.33
2018-04-06T10:09:43.572Z,1.40
2018-04-06T10:12:11.835Z,1.70
2018-04-06T10:14:39.337Z,1.30
2018-04-06T10:17:06.792Z,1.23
2018-04-06T10:19:34.358Z,1.20
2018-04-06T10:22:01.833Z,1.47
2018-04-06T10:24:29.320Z,1.50
2018-04-06T10:26:58.284Z,2.00
2018-04-06T10:29:25.737Z,1.50
2018-04-06T10:31:53.344Z,1.43
2018-04-06T10:34:21.560Z,1.00
2018-04-06T10:36:49.059Z,1.27
2018-04-06T10:39:16.612Z,1.10
2018-04-06T10:41:44.065Z,0.90
2018-04-06T10:44:11.516Z,1.63
2018-04-06T10:46:38.979Z,1.10
2018-04-06T10:49:06.536Z,0.90
2018-04-06T10:51:34.093Z,1.00
2018-04-06T10:54:01.563Z,1.10
2018-04-06T10:56:29.110Z,1.20
2018-04-06T10:58:56.566Z,1.03
2018-04-06T11:01:24.019Z,0.87
2018-04-06T11:03:51.476Z,1.00
2018-04-06T11:06:18.938Z,1.30
2018-04-06T11:08:46.406Z,1.20
2018-04-06T11:11:13.872Z,1.00
2018-04-06T11:13:42.116Z,0.93
2018-04-06T11:16:09.572Z,1.23
2018-04-06T11:18:37.033Z,1.10
2018-04-06T11:21:04.563Z,0.87
2018-04-06T11:23:32.055Z,1.17
2018-04-06T11:25:59.625Z,1.10
2018-04-06T11:28:28.572Z,1.07
2018-04-06T11:30:56.061Z,1.00
2018-04-06T11:33:23.626Z,1.33
2018-04-06T11:35:51.206Z,1.70
2018-04-06T11:38:19.435Z,2.10
2018-04-06T11:40:46.913Z,2.20
2018-04-06T11:43:14.382Z,1.70
2018-04-06T11:45:41.843Z,1.80
2018-04-06T11:48:09.370Z,1.20
2018-04-06T11:50:36.865Z,1.27
2018-04-06T11:53:05.134Z,1.50
2018-04-06T11:55:32.592Z,1.47
2018-04-06T11:58:00.149Z,1.10
2018-04-06T12:00:27.609Z,1.53
2018-04-06T12:02:55.144Z,0.90
2018-04-06T12:05:22.600Z,1.20
2018-04-06T12:07:50.170Z,1.43
2018-04-06T12:10:17.730Z,1.10
2018-04-06T12:12:45.967Z,1.50
2018-04-06T12:15:13.460Z,2.10
2018-04-06T12:17:40.918Z,1.33
2018-04-06T12:20:08.375Z,1.27
2018-04-06T12:22:36.605Z,1.10
2018-04-06T12:25:04.096Z,1.33
2018-04-06T12:27:31.562Z,1.37
2018-04-06T12:29:59.022Z,1.60
2018-04-06T12:32:26.490Z,1.40
2018-04-06T12:34:54.806Z,1.40
2018-04-06T12:37:22.262Z,1.07
2018-04-06T12:39:49.756Z,1.00
2018-04-06T12:42:17.210Z,1.23
2018-04-06T12:44:44.772Z,1.53
2018-04-06T12:47:12.237Z,0.97
2018-04-06T12:49:41.211Z,0.90
2018-04-06T12:52:08.679Z,1.30
2018-04-06T12:54:36.158Z,1.30
2018-04-06T12:57:03.627Z,1.47
2018-04-06T12:59:31.856Z,1.00
2018-04-06T13:01:59.405Z,1.10
2018-04-06T13:04:26.859Z,1.20
2018-04-06T13:06:54.311Z,1.17
2018-04-06T13:09:21.780Z,1.10
2018-04-06T13:11:49.259Z,0.80
2018-04-06T13:14:16.723Z,0.93
2018-04-06T13:16:44.273Z,1.20
2018-04-06T13:19:11.760Z,1.00
2018-04-06T13:21:40.005Z,1.50
2018-04-06T13:24:07.567Z,1.27
2018-04-06T13:26:35.027Z,1.07
2018-04-06T13:29:02.483Z,0.90
2018-04-06T13:31:30.028Z,1.13
2018-04-06T13:33:57.584Z,1.70
2018-04-06T13:36:25.148Z,1.17
2018-04-06T13:38:52.712Z,1.20
2018-04-06T13:41:20.285Z,0.90
2018-04-06T13:43:47.762Z,0.80
2018-04-06T13:46:15.265Z,1.60
2018-04-06T13:48:45.078Z,1.27
2018-04-06T13:51:12.665Z,0.90
2018-04-06T13:53:40.259Z,1.10
2018-04-06T13:56:07.711Z,1.00
2018-04-06T13:58:35.168Z,0.63
2018-04-06T14:01:02.675Z,1.20
2018-04-06T14:03:30.088Z,1.40
2018-04-06T14:05:57.595Z,1.60
2018-04-06T14:08:25.148Z,0.80
2018-04-06T14:10:52.622Z,1.00
2018-04-06T14:13:20.186Z,1.17
2018-04-06T14:15:48.508Z,1.00
2018-04-06T14:18:16.017Z,1.07
2018-04-06T14:20:43.477Z,0.90
2018-04-06T14:23:10.931Z,1.30
2018-04-06T14:25:38.399Z,1.03
2018-04-06T14:28:05.950Z,1.13
2018-04-06T14:30:33.616Z,0.83
2018-04-06T14:33:01.881Z,0.90
2018-04-06T14:35:30.844Z,1.10
2018-04-06T14:37:58.608Z,1.20
2018-04-06T14:40:27.181Z,0.80
2018-04-06T14:42:55.469Z,1.70
2018-04-06T14:45:22.937Z,0.83
2018-04-06T14:47:50.464Z,1.00
2018-04-06T14:50:17.916Z,1.00
2018-04-06T14:52:45.376Z,1.17
2018-04-06T14:55:12.837Z,1.07
2018-04-06T14:57:40.337Z,1.03
2018-04-06T15:00:07.804Z,0.90
2018-04-06T15:02:36.061Z,0.77
2018-04-06T15:05:03.504Z,0.80
2018-04-06T15:07:30.972Z,1.03
2018-04-06T15:09:58.596Z,1.00
2018-04-06T15:12:26.052Z,1.20
2018-04-06T15:14:53.523Z,1.00
2018-04-06T15:17:21.000Z,1.30
2018-04-06T15:19:48.568Z,1.60
2018-04-06T15:22:16.124Z,0.70
2018-04-06T15:24:45.458Z,0.80
2018-04-06T15:27:13.672Z,0.97
2018-04-06T15:29:41.141Z,0.60
2018-04-06T15:32:08.709Z,0.93
2018-04-06T15:34:36.160Z,0.60
2018-04-06T15:37:03.751Z,1.10
2018-04-06T15:39:31.291Z,0.70
2018-04-06T15:41:58.760Z,0.80
2018-04-06T15:44:26.994Z,0.80
2018-04-06T15:46:54.470Z,0.90
2018-04-06T15:49:21.935Z,1.13
2018-04-06T15:51:49.499Z,0.80
2018-04-06T15:54:17.041Z,0.90
2018-04-06T15:56:44.614Z,0.60
2018-04-06T15:59:12.070Z,1.10
2018-04-06T16:01:39.538Z,0.90
2018-04-06T16:04:07.081Z,0.70
2018-04-06T16:06:34.652Z,0.60
2018-04-06T16:09:02.974Z,0.80
2018-04-06T16:11:30.464Z,1.00
2018-04-06T16:13:57.934Z,0.80
2018-04-06T16:16:25.388Z,0.90
2018-04-06T16:18:52.856Z,0.80
2018-04-06T16:21:21.092Z,0.80
2018-04-06T16:23:48.746Z,0.80
2018-04-06T16:26:16.297Z,0.80
2018-04-06T16:28:43.917Z,0.93
2018-04-06T16:31:11.639Z,0.80
2018-04-06T16:33:39.209Z,0.97
2018-04-06T16:36:06.657Z,1.17
2018-04-06T16:38:34.144Z,0.97
2018-04-06T16:41:01.702Z,0.87
2018-04-06T16:43:29.164Z,1.30
2018-04-06T16:45:56.613Z,1.13
2018-04-06T16:48:24.072Z,1.13
2018-04-06T16:50:51.530Z,1.00
2018-04-06T16:53:19.067Z,1.10
2018-04-06T16:55:46.524Z,1.40
2018-04-06T16:58:14.031Z,0.90
2018-04-06T17:00:41.484Z,0.97
2018-04-06T17:03:09.717Z,1.30
2018-04-06T17:05:37.185Z,1.10
2018-04-06T17:08:04.656Z,1.17
2018-04-06T17:10:32.872Z,0.87
2018-04-06T17:13:00.327Z,1.30
2018-04-06T17:15:27.788Z,1.10
2018-04-06T17:17:55.285Z,1.50
2018-04-06T17:20:22.832Z,1.20
2018-04-06T17:22:50.296Z,1.13
2018-04-06T17:25:17.754Z,1.10
2018-04-06T17:27:45.244Z,1.77
2018-04-06T17:30:13.460Z,1.07
2018-04-06T17:32:40.932Z,1.30
2018-04-06T17:35:08.492Z,1.50
2018-04-06T17:37:36.122Z,1.83
2018-04-06T17:40:03.582Z,2.03
2018-04-06T17:42:31.040Z,1.70
2018-04-06T17:44:58.499Z,1.30
2018-04-06T17:47:25.985Z,1.33
2018-04-06T17:49:53.537Z,1.60
2018-04-06T17:52:22.524Z,1.60
2018-04-06T17:54:49.992Z,1.17
2018-04-06T17:57:17.544Z,1.40
2018-04-06T17:59:44.996Z,1.63
2018-04-06T18:02:12.456Z,1.43
2018-04-06T18:04:40.043Z,1.53
2018-04-06T18:07:08.376Z,1.57
2018-04-06T18:09:35.921Z,1.37
2018-04-06T18:12:03.420Z,1.30
2018-04-06T18:14:30.905Z,1.97
2018-04-06T18:16:58.428Z,1.30
2018-04-06T18:19:25.947Z,1.70
2018-04-06T18:21:53.397Z,1.70
2018-04-06T18:24:20.904Z,1.53
2018-04-06T18:26:48.393Z,1.20
2018-04-06T18:29:15.913Z,1.30
2018-04-06T18:31:43.382Z,1.70
2018-04-06T18:34:10.929Z,1.57
2018-04-06T18:36:38.396Z,1.60
2018-04-06T18:39:05.941Z,1.60
2018-04-06T18:41:33.540Z,1.60
2018-04-06T18:44:01.040Z,1.80
2018-04-06T18:46:28.505Z,1.53
2018-04-06T18:48:55.968Z,1.97
2018-04-06T18:51:23.534Z,1.60
2018-04-06T18:53:51.002Z,1.77
2018-04-06T18:56:18.551Z,2.20
2018-04-06T18:58:46.120Z,2.20
2018-04-06T19:01:14.714Z,1.63
2018-04-06T19:03:42.947Z,1.70
2018-04-06T19:06:10.506Z,2.03
2018-04-06T19:08:38.039Z,2.17
2018-04-06T19:11:05.630Z,2.30
2018-04-06T19:13:33.706Z,2.33
2018-04-06T19:16:01.892Z,2.20
2018-04-06T19:18:29.641Z,2.17
2018-04-06T19:20:57.212Z,3.00
2018-04-06T19:23:24.681Z,2.57
2018-04-06T19:25:52.307Z,2.30
2018-04-06T19:28:19.876Z,2.87
2018-04-06T19:30:47.332Z,3.33
2018-04-06T19:33:14.908Z,3.70
2018-04-06T19:35:42.376Z,3.37
2018-04-06T19:38:10.622Z,3.90
2018-04-06T19:40:38.125Z,3.80
2018-04-06T19:43:05.622Z,4.33
2018-04-06T19:45:33.227Z,3.80
2018-04-06T19:48:01.590Z,3.85
2018-04-06T19:50:29.185Z,3.65
2018-04-06T19:52:57.296Z,4.10
2018-04-06T19:55:24.757Z,4.07
2018-04-06T19:57:52.245Z,4.53
2018-04-06T20:00:19.738Z,3.90
2018-04-06T20:02:47.260Z,4.57
2018-04-06T20:05:14.808Z,3.77
2018-04-06T20:07:42.290Z,4.20
2018-04-06T20:10:10.536Z,3.58
2018-04-06T20:12:38.239Z,4.05
2018-04-06T20:15:05.766Z,4.05
2018-04-06T20:17:33.249Z,3.80
2018-04-06T20:20:00.739Z,4.60
2018-04-06T20:22:28.250Z,4.90
2018-04-06T20:24:56.476Z,4.60
2018-04-06T20:27:23.980Z,4.60
2018-04-06T20:29:52.235Z,4.07
2018-04-06T20:32:19.806Z,3.90
2018-04-06T20:34:47.336Z,5.25
2018-04-06T20:37:14.814Z,4.72
2018-04-06T20:39:42.388Z,3.97
2018-04-06T20:42:10.652Z,4.87
2018-04-06T20:44:38.186Z,5.78
2018-04-06T20:47:05.670Z,4.93
2018-04-06T20:49:33.129Z,5.32
2018-04-06T20:52:01.407Z,5.12
2018-04-06T20:54:30.396Z,4.75
2018-04-06T20:56:57.995Z,4.78
2018-04-06T20:59:25.508Z,4.85
2018-04-06T21:01:53.110Z,5.20
2018-04-06T21:04:20.686Z,4.95
2018-04-06T21:06:48.180Z,5.00
2018-04-06T21:09:15.656Z,4.53
2018-04-06T21:11:43.917Z,4.55
2018-04-06T21:14:11.575Z,5.43
2018-04-06T21:16:39.150Z,5.28
2018-04-06T21:19:06.706Z,5.30
2018-04-06T21:21:34.161Z,4.70
2018-04-06T21:24:01.708Z,4.80
2018-04-06T21:26:29.260Z,4.50
2018-04-06T21:28:56.734Z,5.03
2018-04-06T21:31:24.202Z,5.18
2018-04-06T21:33:52.471Z,5.30
2018-04-06T21:36:19.936Z,4.60
2018-04-06T21:38:48.194Z,5.75
2018-04-06T21:41:15.707Z,5.10
2018-04-06T21:43:43.199Z,4.82
2018-04-06T21:46:10.652Z,4.70
2018-04-06T21:48:38.178Z,4.62
2018-04-06T21:51:05.737Z,4.75
2018-04-06T21:53:33.200Z,4.70
2018-04-06T21:56:00.652Z,4.78
2018-04-06T21:58:28.112Z,5.57
2018-04-06T22:00:55.567Z,4.55
2018-04-06T22:03:23.031Z,4.10
2018-04-06T22:05:50.517Z,4.80
2018-04-06T22:08:17.978Z,4.47
2018-04-06T22:10:45.491Z,4.40
2018-04-06T22:13:12.947Z,4.57
2018-04-06T22:15:40.448Z,4.40
2018-04-06T22:18:07.908Z,4.40
2018-04-06T22:20:35.364Z,4.40
2018-04-06T22:23:02.827Z,5.20
2018-04-06T22:25:30.283Z,4.37
2018-04-06T22:27:57.744Z,4.00
2018-04-06T22:30:25.245Z,4.95
2018-04-06T22:32:52.758Z,3.95
2018-04-06T22:35:20.990Z,4.62
2018-04-06T22:37:49.666Z,4.62
2018-04-06T22:40:17.222Z,5.22
2018-04-06T22:42:44.680Z,4.10
2018-04-06T22:45:12.207Z,4.57
2018-04-06T22:47:40.442Z,3.83
2018-04-06T22:50:07.896Z,4.93
2018-04-06T22:52:35.356Z,4.85
2018-04-06T22:55:02.809Z,3.87
2018-04-06T22:57:30.272Z,4.10
2018-04-06T22:59:57.830Z,5.03
2018-04-06T23:02:25.288Z,3.97
2018-04-06T23:04:52.849Z,4.50
2018-04-06T23:07:20.329Z,4.60
2018-04-06T23:09:48.590Z,3.65
2018-04-06T23:12:16.155Z,3.97
2018-04-06T23:14:43.697Z,4.10
2018-04-06T23:17:11.251Z,4.22
2018-04-06T23:19:38.711Z,4.40
2018-04-06T23:22:06.180Z,4.55
2018-04-06T23:24:33.642Z,4.25
2018-04-06T23:27:01.088Z,4.00
2018-04-06T23:29:28.552Z,4.10
2018-04-06T23:31:56.163Z,3.75
2018-04-06T23:34:23.657Z,4.43
2018-04-06T23:36:51.116Z,3.40
2018-04-06T23:39:18.590Z,4.20
2018-04-06T23:41:46.132Z,3.62
2018-04-06T23:44:13.597Z,4.53
2018-04-06T23:46:41.056Z,5.20
2018-04-06T23:49:08.603Z,3.75
2018-04-06T23:51:36.882Z,3.90
2018-04-06T23:54:04.334Z,4.62
2018-04-06T23:56:31.897Z,4.00
2018-04-06T23:58:59.354Z,4.15
